sensor_id;sensor_type;location;lat;lon;timestamp;temperature;humidity
1307;DHT22;646;48.696;9.114;2023-01-28T02:50:41;1.00;99.90
1307;DHT22;646;48.696;9.114;2023-01-28T06:49:10;0.70;99.90
1307;DHT22;646;48.696;9.114;2023-01-28T06:51:36;1.20;99.90
1307;DHT22;646;48.696;9.114;2023-01-28T06:54:01;1.20;99.90
1307;DHT22;646;48.696;9.114;2023-01-28T06:56:27;1.20;99.90
1307;DHT22;646;48.696;9.114;2023-01-28T06:58:53;1.30;99.90
1307;DHT22;646;48.696;9.114;2023-01-28T07:01:18;1.30;99.90
1307;DHT22;646;48.696;9.114;2023-01-28T07:03:44;1.30;99.90
1307;DHT22;646;48.696;9.114;2023-01-28T07:06:09;1.60;99.90
1307;DHT22;646;48.696;9.114;2023-01-28T07:08:35;1.40;99.90
1307;DHT22;646;48.696;9.114;2023-01-28T07:11:02;1.20;99.90
1307;DHT22;646;48.696;9.114;2023-01-28T07:13:28;1.60;99.90
1307;DHT22;646;48.696;9.114;2023-01-28T07:15:54;1.60;99.90
1307;DHT22;646;48.696;9.114;2023-01-28T07:18:19;1.30;99.90
1307;DHT22;646;48.696;9.114;2023-01-28T07:20:45;1.60;99.90
1307;DHT22;646;48.696;9.114;2023-01-28T07:23:10;1.40;99.90
1307;DHT22;646;48.696;9.114;2023-01-28T07:25:36;1.30;99.90
1307;DHT22;646;48.696;9.114;2023-01-28T07:28:02;1.50;99.90
1307;DHT22;646;48.696;9.114;2023-01-28T07:30:27;1.70;99.90
1307;DHT22;646;48.696;9.114;2023-01-28T07:32:54;1.30;99.90
1307;DHT22;646;48.696;9.114;2023-01-28T07:35:20;1.90;99.90
1307;DHT22;646;48.696;9.114;2023-01-28T07:37:52;1.20;99.90
1307;DHT22;646;48.696;9.114;2023-01-28T07:40:18;1.50;99.90
1307;DHT22;646;48.696;9.114;2023-01-28T07:42:43;1.70;99.90
1307;DHT22;646;48.696;9.114;2023-01-28T07:45:09;1.80;99.90
1307;DHT22;646;48.696;9.114;2023-01-28T07:47:35;1.80;99.90
1307;DHT22;646;48.696;9.114;2023-01-28T07:50:01;2.00;99.90
1307;DHT22;646;48.696;9.114;2023-01-28T07:52:26;1.70;99.90
1307;DHT22;646;48.696;9.114;2023-01-28T07:54:52;2.00;99.90
1307;DHT22;646;48.696;9.114;2023-01-28T07:57:17;2.00;99.90
1307;DHT22;646;48.696;9.114;2023-01-28T07:59:48;2.00;99.90
1307;DHT22;646;48.696;9.114;2023-01-28T08:02:14;2.20;99.90
1307;DHT22;646;48.696;9.114;2023-01-28T08:04:39;1.90;99.90
1307;DHT22;646;48.696;9.114;2023-01-28T08:07:05;1.90;99.90
1307;DHT22;646;48.696;9.114;2023-01-28T08:09:31;2.10;99.90
1307;DHT22;646;48.696;9.114;2023-01-28T08:11:58;2.20;99.90
1307;DHT22;646;48.696;9.114;2023-01-28T08:14:26;2.20;99.90
1307;DHT22;646;48.696;9.114;2023-01-28T08:16:51;2.00;99.90
1307;DHT22;646;48.696;9.114;2023-01-28T08:19:17;2.10;99.90
1307;DHT22;646;48.696;9.114;2023-01-28T08:21:43;2.30;99.90
1307;DHT22;646;48.696;9.114;2023-01-28T08:24:08;2.20;99.90
1307;DHT22;646;48.696;9.114;2023-01-28T08:26:34;2.10;99.90
1307;DHT22;646;48.696;9.114;2023-01-28T08:28:59;1.70;99.90
1307;DHT22;646;48.696;9.114;2023-01-28T08:31:26;2.20;99.90
1307;DHT22;646;48.696;9.114;2023-01-28T08:33:53;2.10;99.90
1307;DHT22;646;48.696;9.114;2023-01-28T08:36:18;2.10;99.90
1307;DHT22;646;48.696;9.114;2023-01-28T08:38:44;2.30;99.90
1307;DHT22;646;48.696;9.114;2023-01-28T08:41:10;2.30;99.90
1307;DHT22;646;48.696;9.114;2023-01-28T08:43:35;2.20;99.90
1307;DHT22;646;48.696;9.114;2023-01-28T08:46:01;2.40;99.90
1307;DHT22;646;48.696;9.114;2023-01-28T08:48:26;2.20;99.90
1307;DHT22;646;48.696;9.114;2023-01-28T08:50:52;2.20;99.90
1307;DHT22;646;48.696;9.114;2023-01-28T08:53:19;2.50;99.90
1307;DHT22;646;48.696;9.114;2023-01-28T08:55:45;2.50;99.90
1307;DHT22;646;48.696;9.114;2023-01-28T08:58:13;2.60;99.90
1307;DHT22;646;48.696;9.114;2023-01-28T09:00:39;2.10;99.90
1307;DHT22;646;48.696;9.114;2023-01-28T09:03:05;2.80;99.90
1307;DHT22;646;48.696;9.114;2023-01-28T09:05:31;2.70;99.90
1307;DHT22;646;48.696;9.114;2023-01-28T09:08:11;2.80;99.90
1307;DHT22;646;48.696;9.114;2023-01-28T09:10:37;3.00;99.90
1307;DHT22;646;48.696;9.114;2023-01-28T09:13:14;2.70;99.90
1307;DHT22;646;48.696;9.114;2023-01-28T09:15:40;2.80;99.90
1307;DHT22;646;48.696;9.114;2023-01-28T09:18:06;2.90;99.90
1307;DHT22;646;48.696;9.114;2023-01-28T09:20:32;2.70;99.90
1307;DHT22;646;48.696;9.114;2023-01-28T09:22:59;2.80;99.90
1307;DHT22;646;48.696;9.114;2023-01-28T09:25:24;2.70;99.90
1307;DHT22;646;48.696;9.114;2023-01-28T09:27:50;2.90;99.90
1307;DHT22;646;48.696;9.114;2023-01-28T09:30:15;3.20;99.90
1307;DHT22;646;48.696;9.114;2023-01-28T09:32:41;3.50;99.90
1307;DHT22;646;48.696;9.114;2023-01-28T09:35:07;3.10;99.90
1307;DHT22;646;48.696;9.114;2023-01-28T09:37:32;3.30;99.90
1307;DHT22;646;48.696;9.114;2023-01-28T09:39:58;3.50;99.90
1307;DHT22;646;48.696;9.114;2023-01-28T09:45:23;3.60;99.90
1307;DHT22;646;48.696;9.114;2023-01-28T09:47:58;3.80;99.90
1307;DHT22;646;48.696;9.114;2023-01-28T09:50:35;4.00;99.90
1307;DHT22;646;48.696;9.114;2023-01-28T09:53:17;4.40;99.90
1307;DHT22;646;48.696;9.114;2023-01-28T09:55:56;4.50;99.90
1307;DHT22;646;48.696;9.114;2023-01-28T09:58:22;4.50;99.90
1307;DHT22;646;48.696;9.114;2023-01-28T10:03:50;4.50;99.90
1307;DHT22;646;48.696;9.114;2023-01-28T10:12:35;4.50;99.90
1307;DHT22;646;48.696;9.114;2023-01-28T10:17:52;4.40;99.90
1307;DHT22;646;48.696;9.114;2023-01-28T10:20:27;4.40;99.90
1307;DHT22;646;48.696;9.114;2023-01-28T10:23:10;4.20;99.90
1307;DHT22;646;48.696;9.114;2023-01-28T10:25:36;4.20;99.90
1307;DHT22;646;48.696;9.114;2023-01-28T10:28:13;3.80;99.90
1307;DHT22;646;48.696;9.114;2023-01-28T10:30:44;3.80;99.90
1307;DHT22;646;48.696;9.114;2023-01-28T10:33:28;4.00;99.90
1307;DHT22;646;48.696;9.114;2023-01-28T10:35:55;4.00;99.90
1307;DHT22;646;48.696;9.114;2023-01-28T10:38:24;3.80;99.90
1307;DHT22;646;48.696;9.114;2023-01-28T10:40:50;3.50;99.90
1307;DHT22;646;48.696;9.114;2023-01-28T10:43:19;3.50;99.90
1307;DHT22;646;48.696;9.114;2023-01-28T10:46:00;3.30;99.90
1307;DHT22;646;48.696;9.114;2023-01-28T10:48:32;3.50;99.90
1307;DHT22;646;48.696;9.114;2023-01-28T10:51:01;3.10;99.90
1307;DHT22;646;48.696;9.114;2023-01-28T10:56:04;3.40;99.90
1307;DHT22;646;48.696;9.114;2023-01-28T10:58:33;3.50;99.90
1307;DHT22;646;48.696;9.114;2023-01-28T11:01:03;3.50;99.90
1307;DHT22;646;48.696;9.114;2023-01-28T11:03:29;3.40;99.90
1307;DHT22;646;48.696;9.114;2023-01-28T11:05:57;3.20;99.90
1307;DHT22;646;48.696;9.114;2023-01-28T11:08:26;2.90;99.90
1307;DHT22;646;48.696;9.114;2023-01-28T11:10:53;3.40;99.90
1307;DHT22;646;48.696;9.114;2023-01-28T11:13:21;3.30;99.90
1307;DHT22;646;48.696;9.114;2023-01-28T11:15:52;3.30;99.90
1307;DHT22;646;48.696;9.114;2023-01-28T11:18:31;3.30;99.90
1307;DHT22;646;48.696;9.114;2023-01-28T11:21:04;3.30;99.90
1307;DHT22;646;48.696;9.114;2023-01-28T11:23:33;3.30;99.90
1307;DHT22;646;48.696;9.114;2023-01-28T11:26:05;3.30;99.90
1307;DHT22;646;48.696;9.114;2023-01-28T11:28:32;3.10;99.90
1307;DHT22;646;48.696;9.114;2023-01-28T11:30:59;3.40;99.90
1307;DHT22;646;48.696;9.114;2023-01-28T11:33:33;2.40;99.90
1307;DHT22;646;48.696;9.114;2023-01-28T11:36:18;3.00;99.90
1307;DHT22;646;48.696;9.114;2023-01-28T11:39:02;2.90;99.90
1307;DHT22;646;48.696;9.114;2023-01-28T11:41:35;3.00;99.90
1307;DHT22;646;48.696;9.114;2023-01-28T11:46:51;2.70;99.90
1307;DHT22;646;48.696;9.114;2023-01-28T11:52:21;2.90;99.90
1307;DHT22;646;48.696;9.114;2023-01-28T11:55:15;3.00;99.90
1307;DHT22;646;48.696;9.114;2023-01-28T12:00:40;3.00;99.90
1307;DHT22;646;48.696;9.114;2023-01-28T12:05:47;3.10;99.90
1307;DHT22;646;48.696;9.114;2023-01-28T12:08:27;3.20;99.90
1307;DHT22;646;48.696;9.114;2023-01-28T12:11:20;3.20;99.90
1307;DHT22;646;48.696;9.114;2023-01-28T12:20:34;3.10;99.90
1307;DHT22;646;48.696;9.114;2023-01-28T12:26:24;3.20;99.90
1307;DHT22;646;48.696;9.114;2023-01-28T12:28:54;3.00;99.90
1307;DHT22;646;48.696;9.114;2023-01-28T12:31:35;2.90;99.90
1307;DHT22;646;48.696;9.114;2023-01-28T12:34:45;3.20;99.90
1307;DHT22;646;48.696;9.114;2023-01-28T12:37:21;3.20;99.90
1307;DHT22;646;48.696;9.114;2023-01-28T12:39:59;3.30;99.90
1307;DHT22;646;48.696;9.114;2023-01-28T12:42:57;3.20;99.90
1307;DHT22;646;48.696;9.114;2023-01-28T12:45:31;3.20;99.90
1307;DHT22;646;48.696;9.114;2023-01-28T12:48:17;3.40;99.90
1307;DHT22;646;48.696;9.114;2023-01-28T12:50:54;3.30;99.90
1307;DHT22;646;48.696;9.114;2023-01-28T12:59:01;3.20;99.90
1307;DHT22;646;48.696;9.114;2023-01-28T13:07:06;3.00;99.90
1307;DHT22;646;48.696;9.114;2023-01-28T13:09:36;2.90;99.90
1307;DHT22;646;48.696;9.114;2023-01-28T13:12:03;3.10;99.90
1307;DHT22;646;48.696;9.114;2023-01-28T13:14:32;2.70;99.90
1307;DHT22;646;48.696;9.114;2023-01-28T13:17:09;2.90;99.90
1307;DHT22;646;48.696;9.114;2023-01-28T13:19:39;3.10;99.90
1307;DHT22;646;48.696;9.114;2023-01-28T13:22:32;3.10;99.90
1307;DHT22;646;48.696;9.114;2023-01-28T13:27:53;3.20;99.90
1307;DHT22;646;48.696;9.114;2023-01-28T13:30:33;3.20;99.90
1307;DHT22;646;48.696;9.114;2023-01-28T13:33:05;2.70;99.90
1307;DHT22;646;48.696;9.114;2023-01-28T13:35:36;3.30;99.90
1307;DHT22;646;48.696;9.114;2023-01-28T13:38:08;3.10;99.90
1307;DHT22;646;48.696;9.114;2023-01-28T13:40:35;2.90;99.90
1307;DHT22;646;48.696;9.114;2023-01-28T13:43:04;3.40;99.90
1307;DHT22;646;48.696;9.114;2023-01-28T13:45:31;3.30;99.90
1307;DHT22;646;48.696;9.114;2023-01-28T13:50:41;3.50;99.90
1307;DHT22;646;48.696;9.114;2023-01-28T13:53:39;3.10;99.90
1307;DHT22;646;48.696;9.114;2023-01-28T13:56:14;3.30;99.90
1307;DHT22;646;48.696;9.114;2023-01-28T14:01:40;3.40;99.90
1307;DHT22;646;48.696;9.114;2023-01-28T14:10:10;3.00;99.90
1307;DHT22;646;48.696;9.114;2023-01-28T14:13:01;2.70;99.90
1307;DHT22;646;48.696;9.114;2023-01-28T14:15:55;3.20;99.90
1307;DHT22;646;48.696;9.114;2023-01-28T14:18:25;3.20;99.90
1307;DHT22;646;48.696;9.114;2023-01-28T14:20:54;3.40;99.90
1307;DHT22;646;48.696;9.114;2023-01-28T14:23:21;3.50;99.90
1307;DHT22;646;48.696;9.114;2023-01-28T14:25:51;2.80;99.90
1307;DHT22;646;48.696;9.114;2023-01-28T14:28:46;3.10;99.90
1307;DHT22;646;48.696;9.114;2023-01-28T14:33:39;3.40;99.90
1307;DHT22;646;48.696;9.114;2023-01-28T14:36:05;3.90;99.90
1307;DHT22;646;48.696;9.114;2023-01-28T14:38:39;4.00;99.90
1307;DHT22;646;48.696;9.114;2023-01-28T14:41:06;3.20;99.90
1307;DHT22;646;48.696;9.114;2023-01-28T14:43:33;3.80;99.90
1307;DHT22;646;48.696;9.114;2023-01-28T14:49:03;4.10;99.90
1307;DHT22;646;48.696;9.114;2023-01-28T14:51:40;3.80;99.90
1307;DHT22;646;48.696;9.114;2023-01-28T14:57:34;3.90;99.90
1307;DHT22;646;48.696;9.114;2023-01-28T15:00:02;3.50;99.90
1307;DHT22;646;48.696;9.114;2023-01-28T15:02:32;3.00;99.90
1307;DHT22;646;48.696;9.114;2023-01-28T15:05:27;3.20;99.90
1307;DHT22;646;48.696;9.114;2023-01-28T15:07:53;3.20;99.90
1307;DHT22;646;48.696;9.114;2023-01-28T15:10:30;2.70;99.90
1307;DHT22;646;48.696;9.114;2023-01-28T15:13:02;2.60;99.90
1307;DHT22;646;48.696;9.114;2023-01-28T15:15:35;3.20;99.90
1307;DHT22;646;48.696;9.114;2023-01-28T15:18:23;2.40;99.90
1307;DHT22;646;48.696;9.114;2023-01-28T15:20:52;2.60;99.90
1307;DHT22;646;48.696;9.114;2023-01-28T15:23:28;2.60;99.90
1307;DHT22;646;48.696;9.114;2023-01-28T15:25:55;2.80;99.90
1307;DHT22;646;48.696;9.114;2023-01-28T15:28:30;3.00;99.90
1307;DHT22;646;48.696;9.114;2023-01-28T15:30:56;2.80;99.90
1307;DHT22;646;48.696;9.114;2023-01-28T15:33:23;2.30;99.90
1307;DHT22;646;48.696;9.114;2023-01-28T15:35:54;2.70;99.90
1307;DHT22;646;48.696;9.114;2023-01-28T15:38:21;2.70;99.90
1307;DHT22;646;48.696;9.114;2023-01-28T15:40:58;2.70;99.90
1307;DHT22;646;48.696;9.114;2023-01-28T15:43:27;2.50;99.90
1307;DHT22;646;48.696;9.114;2023-01-28T15:45:55;2.70;99.90
1307;DHT22;646;48.696;9.114;2023-01-28T15:48:32;2.60;99.90
1307;DHT22;646;48.696;9.114;2023-01-28T15:51:07;2.40;99.90
1307;DHT22;646;48.696;9.114;2023-01-28T15:53:35;2.60;99.90
1307;DHT22;646;48.696;9.114;2023-01-28T15:56:11;2.40;99.90
1307;DHT22;646;48.696;9.114;2023-01-28T15:58:37;2.70;99.90
1307;DHT22;646;48.696;9.114;2023-01-28T16:03:38;2.70;99.90
1307;DHT22;646;48.696;9.114;2023-01-28T16:06:04;2.20;99.90
1307;DHT22;646;48.696;9.114;2023-01-28T16:08:39;2.40;99.90
1307;DHT22;646;48.696;9.114;2023-01-28T16:11:07;2.60;99.90
1307;DHT22;646;48.696;9.114;2023-01-28T16:13:34;2.80;99.90
1307;DHT22;646;48.696;9.114;2023-01-28T16:16:01;2.40;99.90
1307;DHT22;646;48.696;9.114;2023-01-28T16:18:44;2.00;99.90
1307;DHT22;646;48.696;9.114;2023-01-28T16:21:26;2.70;99.90
1307;DHT22;646;48.696;9.114;2023-01-28T16:24:02;2.50;99.90
1307;DHT22;646;48.696;9.114;2023-01-28T16:26:30;2.50;99.90
1307;DHT22;646;48.696;9.114;2023-01-28T16:28:56;2.30;99.90
1307;DHT22;646;48.696;9.114;2023-01-28T16:31:21;2.60;99.90
1307;DHT22;646;48.696;9.114;2023-01-28T16:33:47;2.10;99.90
1307;DHT22;646;48.696;9.114;2023-01-28T16:36:16;2.20;99.90
1307;DHT22;646;48.696;9.114;2023-01-28T16:38:44;2.30;99.90
1307;DHT22;646;48.696;9.114;2023-01-28T16:41:18;2.40;99.90
1307;DHT22;646;48.696;9.114;2023-01-28T16:43:45;2.50;99.90
1307;DHT22;646;48.696;9.114;2023-01-28T16:46:11;2.40;99.90
1307;DHT22;646;48.696;9.114;2023-01-28T16:48:37;2.40;99.90
1307;DHT22;646;48.696;9.114;2023-01-28T16:51:03;2.30;99.90
1307;DHT22;646;48.696;9.114;2023-01-28T16:53:31;2.20;99.90
1307;DHT22;646;48.696;9.114;2023-01-28T16:55:58;2.50;99.90
1307;DHT22;646;48.696;9.114;2023-01-28T16:58:25;2.50;99.90
1307;DHT22;646;48.696;9.114;2023-01-28T17:00:51;2.50;99.90
1307;DHT22;646;48.696;9.114;2023-01-28T17:03:17;2.20;99.90
1307;DHT22;646;48.696;9.114;2023-01-28T17:05:44;2.20;99.90
1307;DHT22;646;48.696;9.114;2023-01-28T17:08:09;2.40;99.90
1307;DHT22;646;48.696;9.114;2023-01-28T17:10:35;2.50;99.90
1307;DHT22;646;48.696;9.114;2023-01-28T17:13:01;1.70;99.90
1307;DHT22;646;48.696;9.114;2023-01-28T17:15:26;2.30;99.90
1307;DHT22;646;48.696;9.114;2023-01-28T17:17:52;2.40;99.90
1307;DHT22;646;48.696;9.114;2023-01-28T17:20:18;1.70;99.90
1307;DHT22;646;48.696;9.114;2023-01-28T17:22:44;2.30;99.90
1307;DHT22;646;48.696;9.114;2023-01-28T17:25:10;2.40;99.90
1307;DHT22;646;48.696;9.114;2023-01-28T17:27:36;2.50;99.90
1307;DHT22;646;48.696;9.114;2023-01-28T17:30:01;2.60;99.90
1307;DHT22;646;48.696;9.114;2023-01-28T17:32:27;2.50;99.90
1307;DHT22;646;48.696;9.114;2023-01-28T17:34:53;2.60;99.90
1307;DHT22;646;48.696;9.114;2023-01-28T17:37:18;2.50;99.90
1307;DHT22;646;48.696;9.114;2023-01-28T17:39:44;2.40;99.90
1307;DHT22;646;48.696;9.114;2023-01-28T17:42:09;2.40;99.90
1307;DHT22;646;48.696;9.114;2023-01-28T17:44:35;1.90;99.90
1307;DHT22;646;48.696;9.114;2023-01-28T17:47:00;2.50;99.90
1307;DHT22;646;48.696;9.114;2023-01-28T17:49:26;2.50;99.90
1307;DHT22;646;48.696;9.114;2023-01-28T17:51:51;1.60;99.90
1307;DHT22;646;48.696;9.114;2023-01-28T17:54:17;2.40;99.90
1307;DHT22;646;48.696;9.114;2023-01-28T17:56:43;2.40;99.90
1307;DHT22;646;48.696;9.114;2023-01-28T17:59:09;2.30;99.90
1307;DHT22;646;48.696;9.114;2023-01-28T18:01:35;2.40;99.90
1307;DHT22;646;48.696;9.114;2023-01-28T18:04:02;2.50;99.90
1307;DHT22;646;48.696;9.114;2023-01-28T18:06:32;2.30;99.90
1307;DHT22;646;48.696;9.114;2023-01-28T18:08:58;2.40;99.90
1307;DHT22;646;48.696;9.114;2023-01-28T18:11:23;2.50;99.90
1307;DHT22;646;48.696;9.114;2023-01-28T18:13:49;2.40;99.90
1307;DHT22;646;48.696;9.114;2023-01-28T18:16:16;2.30;99.90
1307;DHT22;646;48.696;9.114;2023-01-28T18:18:43;2.30;99.90
1307;DHT22;646;48.696;9.114;2023-01-28T18:21:33;1.70;99.90
1307;DHT22;646;48.696;9.114;2023-01-28T18:24:01;2.10;99.90
1307;DHT22;646;48.696;9.114;2023-01-28T18:26:27;2.00;99.90
1307;DHT22;646;48.696;9.114;2023-01-28T18:28:52;2.30;99.90
1307;DHT22;646;48.696;9.114;2023-01-28T18:31:18;2.40;99.90
1307;DHT22;646;48.696;9.114;2023-01-28T18:33:44;2.10;99.90
1307;DHT22;646;48.696;9.114;2023-01-28T18:36:10;2.10;99.90
1307;DHT22;646;48.696;9.114;2023-01-28T18:38:35;2.10;99.90
1307;DHT22;646;48.696;9.114;2023-01-28T18:41:01;1.60;99.90
1307;DHT22;646;48.696;9.114;2023-01-28T18:43:26;2.30;99.90
1307;DHT22;646;48.696;9.114;2023-01-28T18:45:53;1.90;99.90
1307;DHT22;646;48.696;9.114;2023-01-28T18:48:19;2.10;99.90
1307;DHT22;646;48.696;9.114;2023-01-28T18:50:49;2.00;99.90
1307;DHT22;646;48.696;9.114;2023-01-28T18:53:15;2.10;99.90
1307;DHT22;646;48.696;9.114;2023-01-28T18:55:41;2.20;99.90
1307;DHT22;646;48.696;9.114;2023-01-28T18:58:06;2.10;99.90
1307;DHT22;646;48.696;9.114;2023-01-28T19:00:32;1.90;99.90
1307;DHT22;646;48.696;9.114;2023-01-28T19:02:57;2.00;99.90
1307;DHT22;646;48.696;9.114;2023-01-28T19:05:22;2.00;99.90
1307;DHT22;646;48.696;9.114;2023-01-28T19:07:48;1.70;99.90
1307;DHT22;646;48.696;9.114;2023-01-28T19:10:15;2.20;99.90
1307;DHT22;646;48.696;9.114;2023-01-28T19:12:40;2.40;99.90
1307;DHT22;646;48.696;9.114;2023-01-28T19:15:07;2.10;99.90
1307;DHT22;646;48.696;9.114;2023-01-28T19:17:32;1.50;99.90
1307;DHT22;646;48.696;9.114;2023-01-28T19:19:58;2.20;99.90
1307;DHT22;646;48.696;9.114;2023-01-28T19:22:23;2.10;99.90
1307;DHT22;646;48.696;9.114;2023-01-28T19:24:49;2.20;99.90
1307;DHT22;646;48.696;9.114;2023-01-28T19:27:14;2.10;99.90
1307;DHT22;646;48.696;9.114;2023-01-28T19:29:40;2.20;99.90
1307;DHT22;646;48.696;9.114;2023-01-28T19:32:05;2.00;99.90
1307;DHT22;646;48.696;9.114;2023-01-28T19:34:31;2.20;99.90
1307;DHT22;646;48.696;9.114;2023-01-28T19:36:56;1.90;99.90
1307;DHT22;646;48.696;9.114;2023-01-28T19:39:22;2.00;99.90
1307;DHT22;646;48.696;9.114;2023-01-28T19:41:47;1.90;99.90
1307;DHT22;646;48.696;9.114;2023-01-28T19:44:13;1.90;99.90
1307;DHT22;646;48.696;9.114;2023-01-28T19:46:38;2.00;99.90
1307;DHT22;646;48.696;9.114;2023-01-28T19:49:05;2.30;99.90
1307;DHT22;646;48.696;9.114;2023-01-28T19:51:33;2.10;99.90
1307;DHT22;646;48.696;9.114;2023-01-28T19:53:58;2.00;99.90
1307;DHT22;646;48.696;9.114;2023-01-28T19:56:25;2.20;99.90
1307;DHT22;646;48.696;9.114;2023-01-28T19:58:52;2.00;99.90
1307;DHT22;646;48.696;9.114;2023-01-28T20:01:23;2.00;99.90
1307;DHT22;646;48.696;9.114;2023-01-28T20:03:51;2.20;99.90
1307;DHT22;646;48.696;9.114;2023-01-28T20:06:19;2.00;99.90
1307;DHT22;646;48.696;9.114;2023-01-28T20:08:50;2.00;99.90
1307;DHT22;646;48.696;9.114;2023-01-28T20:11:16;2.00;99.90
1307;DHT22;646;48.696;9.114;2023-01-28T20:13:43;1.90;99.90
1307;DHT22;646;48.696;9.114;2023-01-28T20:16:18;2.10;99.90
1307;DHT22;646;48.696;9.114;2023-01-28T20:18:50;2.10;99.90
1307;DHT22;646;48.696;9.114;2023-01-28T20:21:16;1.80;99.90
1307;DHT22;646;48.696;9.114;2023-01-28T20:23:43;1.90;99.90
1307;DHT22;646;48.696;9.114;2023-01-28T20:26:09;1.90;99.90
1307;DHT22;646;48.696;9.114;2023-01-28T20:28:34;2.30;99.90
1307;DHT22;646;48.696;9.114;2023-01-28T20:31:03;1.80;99.90
1307;DHT22;646;48.696;9.114;2023-01-28T20:33:29;1.60;99.90
1307;DHT22;646;48.696;9.114;2023-01-28T20:36:00;2.10;99.90
1307;DHT22;646;48.696;9.114;2023-01-28T20:38:26;2.10;99.90
1307;DHT22;646;48.696;9.114;2023-01-28T20:41:04;1.90;99.90
1307;DHT22;646;48.696;9.114;2023-01-28T20:43:37;2.10;99.90
1307;DHT22;646;48.696;9.114;2023-01-28T20:46:10;1.90;99.90
1307;DHT22;646;48.696;9.114;2023-01-28T20:48:36;1.90;99.90
1307;DHT22;646;48.696;9.114;2023-01-28T20:53:31;1.90;99.90
1307;DHT22;646;48.696;9.114;2023-01-28T20:55:58;1.90;99.90
1307;DHT22;646;48.696;9.114;2023-01-28T20:58:24;2.00;99.90
1307;DHT22;646;48.696;9.114;2023-01-28T21:00:50;1.70;99.90
1307;DHT22;646;48.696;9.114;2023-01-28T21:03:16;1.60;99.90
1307;DHT22;646;48.696;9.114;2023-01-28T21:05:43;1.80;99.90
1307;DHT22;646;48.696;9.114;2023-01-28T21:08:10;1.80;99.90
1307;DHT22;646;48.696;9.114;2023-01-28T21:10:36;1.70;99.90
1307;DHT22;646;48.696;9.114;2023-01-28T21:13:01;1.90;99.90
1307;DHT22;646;48.696;9.114;2023-01-28T21:15:27;2.00;99.90
1307;DHT22;646;48.696;9.114;2023-01-28T21:17:52;1.80;99.90
1307;DHT22;646;48.696;9.114;2023-01-28T21:20:18;1.90;99.90
1307;DHT22;646;48.696;9.114;2023-01-28T21:22:49;1.60;99.90
1307;DHT22;646;48.696;9.114;2023-01-28T21:25:15;1.00;99.90
1307;DHT22;646;48.696;9.114;2023-01-28T21:27:40;1.70;99.90
1307;DHT22;646;48.696;9.114;2023-01-28T21:30:06;1.80;99.90
1307;DHT22;646;48.696;9.114;2023-01-28T21:32:32;1.90;99.90
1307;DHT22;646;48.696;9.114;2023-01-28T21:34:58;1.50;99.90
1307;DHT22;646;48.696;9.114;2023-01-28T21:37:24;1.50;99.90
1307;DHT22;646;48.696;9.114;2023-01-28T21:39:49;1.60;99.90
1307;DHT22;646;48.696;9.114;2023-01-28T21:42:15;1.40;99.90
1307;DHT22;646;48.696;9.114;2023-01-28T21:44:41;1.70;99.90
1307;DHT22;646;48.696;9.114;2023-01-28T21:47:07;0.80;99.90
1307;DHT22;646;48.696;9.114;2023-01-28T21:49:33;1.70;99.90
1307;DHT22;646;48.696;9.114;2023-01-28T21:51:58;1.30;99.90
1307;DHT22;646;48.696;9.114;2023-01-28T21:54:24;1.40;99.90
1307;DHT22;646;48.696;9.114;2023-01-28T21:56:50;1.30;99.90
1307;DHT22;646;48.696;9.114;2023-01-28T21:59:17;1.30;99.90
1307;DHT22;646;48.696;9.114;2023-01-28T22:01:55;1.50;99.90
1307;DHT22;646;48.696;9.114;2023-01-28T22:04:21;1.30;99.90
1307;DHT22;646;48.696;9.114;2023-01-28T22:06:47;1.30;99.90
1307;DHT22;646;48.696;9.114;2023-01-28T22:09:13;1.30;99.90
1307;DHT22;646;48.696;9.114;2023-01-28T22:11:40;1.80;99.90
1307;DHT22;646;48.696;9.114;2023-01-28T22:14:06;1.40;99.90
1307;DHT22;646;48.696;9.114;2023-01-28T22:16:31;1.40;99.90
1307;DHT22;646;48.696;9.114;2023-01-28T22:18:57;1.30;99.90
1307;DHT22;646;48.696;9.114;2023-01-28T22:21:22;1.40;99.90
1307;DHT22;646;48.696;9.114;2023-01-28T22:23:48;1.50;99.90
1307;DHT22;646;48.696;9.114;2023-01-28T22:26:14;1.40;99.90
1307;DHT22;646;48.696;9.114;2023-01-28T22:28:39;1.60;99.90
1307;DHT22;646;48.696;9.114;2023-01-28T22:31:11;1.60;99.90
1307;DHT22;646;48.696;9.114;2023-01-28T22:33:37;1.60;99.90
1307;DHT22;646;48.696;9.114;2023-01-28T22:36:12;1.00;99.90
1307;DHT22;646;48.696;9.114;2023-01-28T22:38:39;1.00;99.90
1307;DHT22;646;48.696;9.114;2023-01-28T22:41:06;1.50;99.90
1307;DHT22;646;48.696;9.114;2023-01-28T22:43:33;1.60;99.90
1307;DHT22;646;48.696;9.114;2023-01-28T22:45:59;1.40;99.90
1307;DHT22;646;48.696;9.114;2023-01-28T22:48:25;1.50;99.90
1307;DHT22;646;48.696;9.114;2023-01-28T22:50:51;1.30;99.90
1307;DHT22;646;48.696;9.114;2023-01-28T22:53:16;1.50;99.90
1307;DHT22;646;48.696;9.114;2023-01-28T22:55:42;1.30;99.90
1307;DHT22;646;48.696;9.114;2023-01-28T23:11:05;1.50;99.90
1307;DHT22;646;48.696;9.114;2023-01-28T23:13:46;2.20;99.90
1307;DHT22;646;48.696;9.114;2023-01-28T23:56:12;1.00;99.90
1307;DHT22;646;48.696;9.114;2023-01-28T23:58:38;1.30;99.90
